Terminal Aerodrome Forecast
Issued by NWS

Home | Current Version | Previous Version | Text Only | Print | Product List | Glossary On
Versions: 1 2 3 4 5 6 7 8 9 10 11 12 13 14 15 16 17 18 19 20 21 22 23 24 25 26 27
000
FTUS46 KSEW 230800 AAA
TAFSEA
TAF AMD
KSEA 230803Z 2308/2412 20012G20KT P6SM SCT022 SCT060 BKN080
      TEMPO 2308/2311 BKN020 BKN060
     FM231100 20012G20KT P6SM -RA SCT011 OVC020
     FM231300 20018G28KT 5SM -RA BR SCT010 OVC015
     FM231700 22016G24KT P6SM VCSH SCT015 BKN025
     FM232100 23012G20KT P6SM VCSH SCT020 BKN035
     FM240300 20007KT P6SM SCT025 BKN040
     FM240700 15007KT P6SM BKN040=

USA.gov is the U.S. government's official web portal to all federal, state and local government web resources and services.